Time;durP1;ratioP1;P1;durP2;ratioP2;P2;SDS_P1;SDS_P2;PMS_P1;PMS_P2;Temp;Humidity;BMP_temperature;BMP_pressure;BME280_temperature;BME280_humidity;BME280_pressure;Samples;Min_cycle;Max_cycle;Signal;HPM_P1;HPM_P2
2022/05/28 00:01:15;;;;;;;8.80;3.33;;;25.90;79.80;;;;;;6277683;22;20008;-76
2022/05/28 00:03:45;;;;;;;14.13;5.72;;;25.90;79.70;;;;;;6250320;22;20042;-77
2022/05/28 00:06:17;;;;;;;7.20;3.20;;;25.80;78.70;;;;;;6277236;22;20014;-77
2022/05/28 00:08:43;;;;;;;4.97;2.83;;;25.80;79.30;;;;;;6278379;22;20073;-78
2022/05/28 00:11:22;;;;;;;4.15;2.85;;;25.80;79.20;;;;;;6276316;22;20000;-78
2022/05/28 00:13:49;;;;;;;6.43;3.13;;;25.80;79.30;;;;;;6276810;22;19996;-78
2022/05/28 00:16:15;;;;;;;6.22;2.92;;;25.80;79.20;;;;;;6277086;22;20011;-78
2022/05/28 00:18:41;;;;;;;4.85;3.20;;;25.80;79.00;;;;;;6249544;22;20026;-77
2022/05/28 00:21:08;;;;;;;7.63;3.30;;;25.80;79.20;;;;;;6248421;22;20007;-77
2022/05/28 00:23:36;;;;;;;4.65;2.70;;;25.80;79.80;;;;;;6276208;22;20418;-76
2022/05/28 00:26:06;;;;;;;6.82;3.38;;;25.70;79.70;;;;;;6276289;22;20003;-77
2022/05/28 00:28:32;;;;;;;4.90;2.78;;;25.80;79.60;;;;;;6248869;22;20023;-77
2022/05/28 00:30:59;;;;;;;5.25;2.85;;;25.70;80.00;;;;;;6275638;22;20558;-77
2022/05/28 00:33:26;;;;;;;6.20;2.90;;;25.70;79.70;;;;;;6276132;22;20003;-77
2022/05/28 00:35:51;;;;;;;5.43;3.35;;;25.70;79.80;;;;;;6276421;22;20000;-77
2022/05/28 00:38:18;;;;;;;6.28;3.15;;;25.70;80.10;;;;;;6276056;22;20441;-77
2022/05/28 00:40:56;;;;;;;7.15;2.80;;;25.70;80.00;;;;;;6275323;22;20704;-76
2022/05/28 00:43:22;;;;;;;4.18;2.80;;;25.70;80.60;;;;;;6275506;22;20000;-77
2022/05/28 00:45:51;;;;;;;6.80;3.33;;;25.80;80.10;;;;;;6275983;22;20031;-78
2022/05/28 00:48:22;;;;;;;6.38;3.25;;;25.80;80.20;;;;;;6276415;22;20022;-77
2022/05/28 00:50:48;;;;;;;4.40;2.80;;;25.80;80.40;;;;;;6247939;22;20008;-78
2022/05/28 00:53:13;;;;;;;5.57;3.10;;;25.80;80.50;;;;;;6274848;22;19999;-78
2022/05/28 00:55:39;;;;;;;6.57;3.47;;;25.80;80.70;;;;;;6275176;22;20068;-78
2022/05/28 00:58:08;;;;;;;7.53;3.28;;;25.80;80.70;;;;;;6248738;22;20404;-78
2022/05/28 01:00:36;;;;;;;6.50;2.93;;;25.70;80.80;;;;;;6249241;22;20380;-77
2022/05/28 01:03:26;;;;;;;7.28;3.67;;;25.70;81.10;;;;;;6276361;22;20007;-77
2022/05/28 01:06:01;;;;;;;10.65;3.90;;;25.70;81.70;;;;;;6248991;22;20430;-77
2022/05/28 01:08:52;;;;;;;6.35;3.33;;;25.70;82.50;;;;;;6275804;22;20019;-78
2022/05/28 01:11:34;;;;;;;5.93;2.55;;;25.70;82.50;;;;;;6275446;22;20004;-77
2022/05/28 01:14:46;;;;;;;8.18;3.38;;;25.60;82.70;;;;;;6276431;22;19995;-77
2022/05/28 01:17:33;;;;;;;4.78;2.97;;;25.60;82.70;;;;;;6123312;23;20018;-77
2022/05/28 01:20:09;;;;;;;7.35;3.20;;;25.60;83.20;;;;;;6239570;22;20422;-78
2022/05/28 01:22:53;;;;;;;8.05;3.47;;;25.60;83.30;;;;;;6248673;22;20284;-78
2022/05/28 01:25:43;;;;;;;6.90;2.92;;;25.50;83.40;;;;;;6275784;22;20054;-77
2022/05/28 01:28:15;;;;;;;6.63;3.20;;;25.50;83.60;;;;;;6274843;22;20006;-77
2022/05/28 01:30:44;;;;;;;7.18;3.47;;;25.50;83.60;;;;;;6275096;22;20003;-78
2022/05/28 01:33:12;;;;;;;8.77;4.25;;;25.50;83.60;;;;;;6275675;22;20403;-79
2022/05/28 01:35:38;;;;;;;8.13;3.40;;;25.50;84.40;;;;;;6276124;22;20008;-79
2022/05/28 01:38:06;;;;;;;5.57;2.80;;;25.50;84.10;;;;;;6276145;22;20003;-79
2022/05/28 01:40:33;;;;;;;7.28;2.65;;;25.50;84.30;;;;;;6275915;22;20019;-79
2022/05/28 01:43:04;;;;;;;7.25;3.25;;;25.40;84.40;;;;;;6274909;22;20066;-81
2022/05/28 01:45:31;;;;;;;11.30;4.50;;;25.40;84.60;;;;;;6276017;22;20020;-82
2022/05/28 01:48:03;;;;;;;6.28;3.17;;;25.40;85.30;;;;;;6276584;22;20082;-77
2022/05/28 01:50:31;;;;;;;5.47;3.00;;;25.40;84.80;;;;;;6275443;22;20000;-78
2022/05/28 01:53:01;;;;;;;8.30;3.97;;;25.40;85.00;;;;;;6276153;22;20050;-78
2022/05/28 01:55:28;;;;;;;;;;;25.40;85.20;;;;;;6276499;22;20000;-77
2022/05/28 01:57:53;;;;;;;8.70;3.50;;;25.40;85.50;;;;;;6274702;22;19906;-77
2022/05/28 02:00:19;;;;;;;10.40;3.55;;;25.40;85.60;;;;;;6275066;22;19999;-77
2022/05/28 02:02:45;;;;;;;4.57;2.50;;;25.40;85.40;;;;;;6249070;22;20031;-77
2022/05/28 02:05:11;;;;;;;5.63;2.72;;;25.40;85.40;;;;;;6276091;22;20086;-78
2022/05/28 02:07:37;;;;;;;5.20;2.75;;;25.40;85.50;;;;;;6276373;22;20317;-77
2022/05/28 02:10:10;;;;;;;6.85;3.47;;;25.40;85.40;;;;;;6275629;22;20006;-77
2022/05/28 02:13:01;;;;;;;6.30;3.50;;;25.40;85.50;;;;;;6275492;22;20000;-77
2022/05/28 02:15:53;;;;;;;6.68;3.30;;;25.40;85.40;;;;;;6274291;22;20107;-79
2022/05/28 02:18:37;;;;;;;4.05;2.63;;;25.40;85.40;;;;;;6255164;22;20006;-78
2022/05/28 02:21:32;;;;;;;5.85;3.25;;;25.40;85.60;;;;;;6275840;22;19992;-77
2022/05/28 02:24:26;;;;;;;6.85;3.10;;;25.40;85.80;;;;;;6275932;22;20070;-77
2022/05/28 02:26:57;;;;;;;8.48;3.70;;;25.40;85.70;;;;;;6247348;22;20007;-78
2022/05/28 02:29:23;;;;;;;6.43;3.22;;;25.40;85.80;;;;;;6274813;22;19999;-79
2022/05/28 02:31:49;;;;;;;5.60;3.10;;;25.30;85.70;;;;;;6275858;22;20003;-79
2022/05/28 02:34:17;;;;;;;5.90;3.22;;;25.30;85.80;;;;;;6248995;22;20004;-78
2022/05/28 02:36:43;;;;;;;4.60;3.00;;;25.30;85.90;;;;;;6275785;22;20000;-77
2022/05/28 02:39:09;;;;;;;7.72;3.97;;;25.30;86.00;;;;;;6247848;22;20392;-77
2022/05/28 02:41:35;;;;;;;5.88;3.47;;;25.30;86.40;;;;;;6248910;22;20299;-77
2022/05/28 02:44:01;;;;;;;4.80;3.00;;;25.20;86.40;;;;;;6276028;22;20075;-79
2022/05/28 02:46:26;;;;;;;8.43;3.25;;;25.20;86.60;;;;;;6275439;22;20004;-79
2022/05/28 02:48:52;;;;;;;6.13;3.70;;;25.20;86.10;;;;;;6274892;22;20035;-79
2022/05/28 02:51:20;;;;;;;7.35;4.78;;;25.20;86.30;;;;;;6275337;22;20003;-78
2022/05/28 02:53:48;;;;;;;6.10;3.80;;;25.10;86.90;;;;;;6276177;22;19996;-78
2022/05/28 02:56:13;;;;;;;10.00;4.10;;;25.10;86.60;;;;;;6248954;22;20008;-78
2022/05/28 02:58:40;;;;;;;5.97;3.80;;;25.10;86.70;;;;;;6275319;22;20357;-79
2022/05/28 03:01:23;;;;;;;7.32;3.88;;;25.10;86.40;;;;;;6275952;22;20003;-79
2022/05/28 03:03:49;;;;;;;6.55;3.63;;;25.10;86.60;;;;;;6248267;22;20030;-79
2022/05/28 03:06:15;;;;;;;11.80;6.15;;;25.00;86.50;;;;;;6248175;22;20094;-77
2022/05/28 03:08:41;;;;;;;11.75;8.02;;;24.90;86.50;;;;;;6275037;22;19996;-78
2022/05/28 03:11:07;;;;;;;13.30;8.32;;;24.90;86.50;;;;;;6248001;22;20004;-78
2022/05/28 03:13:33;;;;;;;10.65;6.30;;;24.90;86.40;;;;;;6274497;22;20070;-78
2022/05/28 03:15:58;;;;;;;12.43;8.23;;;24.80;86.50;;;;;;6247182;22;20373;-78
2022/05/28 03:18:24;;;;;;;15.15;10.20;;;24.80;86.50;;;;;;6274895;22;20007;-78
2022/05/28 03:20:50;;;;;;;13.23;9.18;;;24.80;86.30;;;;;;6274643;22;19996;-78
2022/05/28 03:23:15;;;;;;;12.98;8.32;;;24.80;86.00;;;;;;6275503;22;20027;-79
2022/05/28 03:25:41;;;;;;;10.05;6.95;;;24.80;85.80;;;;;;6275198;22;19999;-82
2022/05/28 03:28:07;;;;;;;11.38;7.30;;;24.80;85.70;;;;;;6275648;22;20003;-82
2022/05/28 03:30:33;;;;;;;14.52;8.07;;;24.70;85.60;;;;;;6275682;22;20391;-81
2022/05/28 03:32:58;;;;;;;13.73;9.43;;;24.60;85.50;;;;;;6276053;22;20023;-80
2022/05/28 03:35:24;;;;;;;12.38;7.45;;;24.60;85.50;;;;;;6275753;22;20339;-80
2022/05/28 03:37:50;;;;;;;8.15;5.30;;;24.60;85.50;;;;;;6277185;22;20007;-80
2022/05/28 03:40:16;;;;;;;10.00;5.97;;;24.60;85.40;;;;;;6276690;22;20000;-79
2022/05/28 03:42:41;;;;;;;14.48;9.05;;;24.60;85.30;;;;;;6276931;22;20053;-79
2022/05/28 03:45:07;;;;;;;15.00;9.60;;;24.60;85.10;;;;;;6277249;22;19999;-78
2022/05/28 03:47:34;;;;;;;11.18;6.05;;;24.60;85.10;;;;;;6276496;22;20010;-78
2022/05/28 03:50:00;;;;;;;7.28;5.40;;;24.60;85.00;;;;;;6276321;22;20464;-78
2022/05/28 03:52:25;;;;;;;12.02;5.72;;;24.60;85.00;;;;;;6276757;22;20073;-78
2022/05/28 03:54:51;;;;;;;8.88;6.88;;;24.60;84.90;;;;;;6249703;22;20028;-76
2022/05/28 03:57:35;;;;;;;14.43;7.22;;;24.60;84.80;;;;;;6277036;22;20053;-76
2022/05/28 04:00:03;;;;;;;10.15;6.63;;;24.60;84.50;;;;;;6276340;22;20083;-76
2022/05/28 04:02:29;;;;;;;14.35;8.80;;;24.60;84.30;;;;;;6276922;22;20061;-77
2022/05/28 04:04:55;;;;;;;9.52;6.53;;;24.60;84.00;;;;;;6276251;22;20007;-78
2022/05/28 04:07:22;;;;;;;12.50;7.07;;;24.60;84.00;;;;;;6276388;22;20079;-76
2022/05/28 04:09:48;;;;;;;9.38;6.43;;;24.50;84.10;;;;;;6276272;22;20006;-76
2022/05/28 04:12:13;;;;;;;14.45;8.75;;;24.50;84.10;;;;;;6276429;22;20021;-76
2022/05/28 04:14:39;;;;;;;8.75;6.18;;;24.40;84.20;;;;;;6276587;22;20053;-75
2022/05/28 04:17:05;;;;;;;9.00;6.35;;;24.40;84.30;;;;;;6276636;22;20099;-76
2022/05/28 04:19:31;;;;;;;10.80;7.00;;;24.50;84.30;;;;;;6249058;22;20438;-77
2022/05/28 04:21:57;;;;;;;8.05;5.60;;;24.40;84.50;;;;;;6276605;22;20076;-78
2022/05/28 04:24:23;;;;;;;8.98;5.85;;;24.40;84.70;;;;;;6276313;22;20090;-79
2022/05/28 04:26:49;;;;;;;11.13;6.82;;;24.40;84.60;;;;;;6276133;22;20003;-79
2022/05/28 04:29:15;;;;;;;9.93;6.05;;;24.40;84.80;;;;;;6248181;22;20027;-78
2022/05/28 04:31:41;;;;;;;8.35;6.45;;;24.40;84.90;;;;;;6276649;22;20349;-78
2022/05/28 04:34:07;;;;;;;13.85;9.95;;;24.40;84.80;;;;;;6276747;22;20004;-78
2022/05/28 04:36:32;;;;;;;15.93;10.32;;;24.50;84.70;;;;;;6275778;22;20008;-78
2022/05/28 04:38:58;;;;;;;17.42;9.38;;;24.20;84.90;;;;;;6275710;22;20010;-78
2022/05/28 04:41:24;;;;;;;10.20;6.53;;;24.10;85.40;;;;;;6276864;22;20038;-77
2022/05/28 04:43:50;;;;;;;9.27;6.60;;;24.10;85.60;;;;;;6275314;22;20073;-79
2022/05/28 04:46:15;;;;;;;7.43;5.75;;;24.10;85.80;;;;;;6274961;22;20402;-79
2022/05/28 04:48:41;;;;;;;13.23;6.78;;;24.10;85.60;;;;;;6274872;22;20034;-77
2022/05/28 04:51:07;;;;;;;7.65;5.85;;;24.00;85.80;;;;;;6275969;22;20015;-77
2022/05/28 04:53:33;;;;;;;11.98;7.03;;;24.10;85.70;;;;;;6248607;22;20070;-79
2022/05/28 04:55:58;;;;;;;9.88;5.82;;;24.10;86.10;;;;;;6275906;22;20323;-78
2022/05/28 04:58:24;;;;;;;13.98;8.50;;;24.10;86.00;;;;;;6274804;22;20002;-76
2022/05/28 05:00:50;;;;;;;10.38;6.28;;;24.10;86.20;;;;;;6276290;22;20505;-77
2022/05/28 05:03:15;;;;;;;10.13;7.47;;;24.10;85.90;;;;;;6276506;22;20000;-78
2022/05/28 05:05:41;;;;;;;11.80;6.90;;;24.20;86.30;;;;;;6275867;22;20350;-79
2022/05/28 05:08:07;;;;;;;8.95;6.63;;;24.30;85.90;;;;;;6276450;22;20075;-78
2022/05/28 05:10:33;;;;;;;7.55;6.65;;;24.40;85.90;;;;;;6276761;22;20007;-77
2022/05/28 05:13:00;;;;;;;10.57;6.70;;;24.50;85.80;;;;;;6275780;22;20002;-77
2022/05/28 05:15:26;;;;;;;8.80;5.80;;;24.60;85.70;;;;;;6275613;22;20489;-77
2022/05/28 05:17:51;;;;;;;9.98;6.75;;;24.60;85.50;;;;;;6275837;22;20031;-77
2022/05/28 05:20:17;;;;;;;10.77;7.03;;;24.60;85.30;;;;;;6276336;22;20000;-78
2022/05/28 05:22:43;;;;;;;8.95;7.38;;;24.70;85.20;;;;;;6276324;22;20434;-78
2022/05/28 05:25:11;;;;;;;12.82;7.70;;;24.70;85.00;;;;;;6275608;22;20015;-78
2022/05/28 05:27:38;;;;;;;12.98;8.95;;;24.80;85.10;;;;;;6275771;22;20111;-80
2022/05/28 05:30:05;;;;;;;11.70;8.05;;;24.80;84.50;;;;;;6275716;22;20023;-78
2022/05/28 05:32:31;;;;;;;10.32;7.78;;;24.80;84.20;;;;;;6248452;22;20067;-80
2022/05/28 05:34:56;;;;;;;8.20;7.03;;;24.80;84.20;;;;;;6276165;22;20315;-79
2022/05/28 05:37:22;;;;;;;10.65;6.70;;;24.80;84.00;;;;;;6275755;22;20004;-77
2022/05/28 05:39:48;;;;;;;9.48;5.60;;;24.80;83.80;;;;;;6276472;22;20059;-77
2022/05/28 05:42:14;;;;;;;8.55;5.78;;;24.80;83.80;;;;;;6275340;22;20323;-78
2022/05/28 05:44:39;;;;;;;10.20;5.85;;;24.80;83.80;;;;;;6276141;22;20010;-80
2022/05/28 05:47:06;;;;;;;8.75;5.65;;;24.90;83.70;;;;;;6275366;22;20004;-76
2022/05/28 05:49:32;;;;;;;9.05;5.30;;;24.90;83.20;;;;;;6248385;22;20062;-77
2022/05/28 05:51:58;;;;;;;10.40;6.32;;;24.90;83.00;;;;;;6276300;22;20368;-78
2022/05/28 05:54:24;;;;;;;6.93;5.15;;;24.90;83.10;;;;;;6275795;22;20000;-76
2022/05/28 05:56:51;;;;;;;11.02;7.15;;;24.80;82.90;;;;;;6275648;22;20086;-75
2022/05/28 05:59:17;;;;;;;6.43;5.18;;;24.80;83.00;;;;;;6274864;22;20133;-75
2022/05/28 06:01:43;;;;;;;8.52;5.63;;;24.80;82.30;;;;;;6275626;22;20386;-75
2022/05/28 06:04:09;;;;;;;9.80;7.18;;;24.90;82.50;;;;;;6276041;22;20070;-75
2022/05/28 06:06:34;;;;;;;7.80;5.15;;;24.90;80.50;;;;;;6248520;22;20334;-74
2022/05/28 06:09:00;;;;;;;6.80;4.38;;;24.90;81.80;;;;;;6276026;22;20053;-74
2022/05/28 06:11:26;;;;;;;9.48;5.70;;;24.90;81.10;;;;;;6275279;22;20031;-75
2022/05/28 06:13:52;;;;;;;9.30;5.82;;;24.90;80.90;;;;;;6275289;22;19996;-77
2022/05/28 06:16:18;;;;;;;10.77;5.30;;;25.00;80.60;;;;;;6274254;22;20342;-75
2022/05/28 06:18:44;;;;;;;8.13;5.30;;;25.00;80.60;;;;;;6275353;22;20000;-75
2022/05/28 06:21:11;;;;;;;18.40;9.00;;;25.10;80.00;;;;;;6274634;22;20061;-76
2022/05/28 06:23:36;;;;;;;9.48;5.90;;;25.10;79.10;;;;;;6274320;22;20004;-74
2022/05/28 06:26:04;;;;;;;10.07;5.93;;;25.00;79.40;;;;;;6274095;22;20010;-74
2022/05/28 06:28:30;;;;;;;7.50;4.72;;;25.10;79.40;;;;;;6274574;22;20050;-75
2022/05/28 06:30:59;;;;;;;9.32;5.55;;;25.10;79.70;;;;;;6273656;22;19996;-75
2022/05/28 06:33:25;;;;;;;9.18;5.35;;;25.10;79.60;;;;;;6274366;22;20002;-77
2022/05/28 06:35:59;;;;;;;7.97;3.88;;;25.20;78.80;;;;;;6275694;22;20039;-77
2022/05/28 06:38:26;;;;;;;7.35;4.70;;;25.20;78.00;;;;;;6274633;22;20007;-80
2022/05/28 06:40:52;;;;;;;5.80;3.72;;;25.30;77.80;;;;;;6275778;22;20002;-80
2022/05/28 06:43:18;;;;;;;6.57;3.80;;;25.30;77.30;;;;;;6274516;22;20007;-79
2022/05/28 06:45:43;;;;;;;7.10;3.65;;;25.40;77.90;;;;;;6275288;22;20030;-78
2022/05/28 06:48:10;;;;;;;8.07;4.28;;;25.40;76.80;;;;;;6248441;22;20011;-79
2022/05/28 06:53:20;;;;;;;5.57;3.63;;;25.40;74.70;;;;;;6275493;22;20034;-79
2022/05/28 06:55:47;;;;;;;10.55;4.03;;;25.40;74.00;;;;;;6275570;22;20000;-79
2022/05/28 06:58:13;;;;;;;4.93;3.22;;;25.40;72.60;;;;;;6248442;22;20046;-79
2022/05/28 07:00:39;;;;;;;8.05;3.83;;;25.40;73.40;;;;;;6275692;22;20003;-79
2022/05/28 07:03:05;;;;;;;5.60;3.63;;;25.40;72.30;;;;;;6275472;22;20011;-79
2022/05/28 07:05:31;;;;;;;5.35;2.90;;;25.50;71.10;;;;;;6275295;22;19999;-79
2022/05/28 07:07:57;;;;;;;5.95;2.80;;;25.50;72.40;;;;;;6276316;22;20010;-79
2022/05/28 07:10:23;;;;;;;6.78;2.97;;;25.60;72.40;;;;;;6277418;22;20318;-78
2022/05/28 07:12:49;;;;;;;5.55;3.40;;;25.60;71.10;;;;;;6277167;22;20412;-79
2022/05/28 07:15:15;;;;;;;7.47;4.18;;;25.70;71.40;;;;;;6269361;22;20101;-79
2022/05/28 07:17:41;;;;;;;5.72;2.88;;;25.60;70.40;;;;;;6275684;22;20078;-79
2022/05/28 07:20:09;;;;;;;5.75;3.03;;;25.70;70.10;;;;;;6275817;22;20305;-79
2022/05/28 07:22:35;;;;;;;7.20;4.07;;;25.80;70.40;;;;;;6277392;22;20338;-79
2022/05/28 07:25:01;;;;;;;11.45;5.22;;;25.80;69.40;;;;;;6249981;22;20011;-79
2022/05/28 07:27:27;;;;;;;9.00;3.92;;;25.90;70.00;;;;;;6277658;22;20035;-79
2022/05/28 07:29:56;;;;;;;13.35;5.50;;;25.90;69.80;;;;;;6277246;22;20003;-79
2022/05/28 07:32:25;;;;;;;4.85;3.78;;;25.90;70.30;;;;;;6277364;22;20027;-78
2022/05/28 07:34:51;;;;;;;6.75;4.68;;;25.90;70.80;;;;;;6249155;22;20034;-79
2022/05/28 07:37:17;;;;;;;6.10;4.20;;;25.90;71.30;;;;;;6275852;22;19999;-78
2022/05/28 07:39:43;;;;;;;7.57;4.43;;;25.90;71.50;;;;;;6276878;22;20031;-77
2022/05/28 07:42:09;;;;;;;7.53;3.35;;;26.00;71.60;;;;;;6276108;22;19999;-74
2022/05/28 07:44:35;;;;;;;4.88;3.67;;;26.00;71.40;;;;;;6274258;22;20003;-77
2022/05/28 07:47:05;;;;;;;8.85;4.18;;;26.00;71.50;;;;;;6276849;22;20008;-77
2022/05/28 07:49:30;;;;;;;7.03;3.30;;;26.00;70.90;;;;;;6275754;22;20004;-78
2022/05/28 07:51:56;;;;;;;8.48;3.80;;;26.00;71.30;;;;;;6276667;22;20480;-77
2022/05/28 07:54:22;;;;;;;6.60;3.58;;;26.10;71.10;;;;;;6248922;22;20006;-75
2022/05/28 07:56:50;;;;;;;5.18;3.40;;;26.20;71.60;;;;;;6275962;22;20007;-75
2022/05/28 07:59:16;;;;;;;6.72;3.55;;;26.20;71.20;;;;;;6246664;22;20034;-75
2022/05/28 08:01:42;;;;;;;6.45;3.35;;;26.30;71.20;;;;;;6273067;22;20003;-75
2022/05/28 08:04:09;;;;;;;5.57;3.33;;;26.20;70.70;;;;;;6272123;22;20525;-78
2022/05/28 08:06:36;;;;;;;7.20;3.10;;;26.20;71.30;;;;;;6273395;22;20004;-78
2022/05/28 08:09:03;;;;;;;6.07;3.15;;;26.30;71.20;;;;;;6272412;22;20014;-78
2022/05/28 08:11:29;;;;;;;7.93;4.05;;;26.30;70.60;;;;;;6272775;22;20106;-78
2022/05/28 08:13:55;;;;;;;7.10;3.47;;;26.30;69.70;;;;;;6270451;22;20023;-78
2022/05/28 08:16:21;;;;;;;12.10;4.60;;;26.30;69.70;;;;;;6272673;22;20016;-75
2022/05/28 08:18:48;;;;;;;10.07;3.50;;;26.40;69.40;;;;;;6272826;22;19999;-75
2022/05/28 08:23:58;;;;;;;6.68;2.80;;;26.40;68.60;;;;;;6272536;22;20065;-75
2022/05/28 08:26:25;;;;;;;9.13;3.20;;;26.40;68.00;;;;;;6273936;22;19999;-75
2022/05/28 08:28:52;;;;;;;5.97;2.60;;;26.40;68.70;;;;;;6274202;22;20326;-75
2022/05/28 08:31:19;;;;;;;10.60;3.20;;;26.40;68.90;;;;;;6248367;22;20007;-75
2022/05/28 08:33:45;;;;;;;9.18;3.20;;;26.40;68.80;;;;;;6275180;22;19996;-75
2022/05/28 08:36:11;;;;;;;4.05;2.58;;;26.20;68.00;;;;;;6275207;22;20006;-79
2022/05/28 08:38:37;;;;;;;6.47;3.15;;;26.20;68.30;;;;;;6275386;22;20075;-79
2022/05/28 08:41:22;;;;;;;5.72;2.83;;;26.20;68.90;;;;;;6276140;22;20031;-79
2022/05/28 08:44:13;;;;;;;7.97;2.92;;;26.30;69.00;;;;;;6275418;22;20000;-79
2022/05/28 08:46:43;;;;;;;6.82;2.78;;;26.30;68.80;;;;;;6273687;22;20458;-79
2022/05/28 08:49:12;;;;;;;6.97;2.40;;;26.20;69.10;;;;;;6273648;22;20022;-79
2022/05/28 08:52:03;;;;;;;6.30;2.50;;;26.20;69.00;;;;;;6271895;22;20064;-75
2022/05/28 08:54:31;;;;;;;3.17;2.00;;;26.20;69.20;;;;;;6270175;22;20296;-75
2022/05/28 08:57:03;;;;;;;7.07;2.53;;;26.10;68.60;;;;;;6272381;22;20454;-73
2022/05/28 08:59:39;;;;;;;6.22;2.83;;;26.00;68.50;;;;;;6247166;22;20087;-80
2022/05/28 09:02:15;;;;;;;5.43;2.15;;;25.90;69.50;;;;;;6276837;22;20445;-79
2022/05/28 09:04:43;;;;;;;4.18;2.05;;;25.90;70.20;;;;;;6249032;22;20068;-79
2022/05/28 09:07:14;;;;;;;2.20;1.67;;;25.90;69.20;;;;;;6273743;22;20063;-77
2022/05/28 09:09:48;;;;;;;4.55;1.95;;;25.80;69.30;;;;;;6246488;22;20019;-79
2022/05/28 09:12:22;;;;;;;7.28;2.15;;;25.70;68.90;;;;;;6272800;22;20418;-78
2022/05/28 09:14:49;;;;;;;8.10;2.03;;;25.50;68.40;;;;;;6273570;22;20038;-78
2022/05/28 09:17:36;;;;;;;5.70;2.08;;;25.40;69.20;;;;;;6246397;22;20045;-78
2022/05/28 09:20:16;;;;;;;6.63;2.03;;;25.30;69.40;;;;;;6274199;22;20012;-79
2022/05/28 09:22:42;;;;;;;3.40;1.60;;;25.00;69.20;;;;;;6245227;22;20004;-75
2022/05/28 09:25:09;;;;;;;5.18;2.05;;;25.10;69.60;;;;;;6272727;22;20003;-75
2022/05/28 09:27:44;;;;;;;4.10;1.55;;;25.30;69.80;;;;;;6271043;22;20014;-75
2022/05/28 09:30:17;;;;;;;6.55;1.83;;;25.50;69.60;;;;;;6271736;22;20046;-75
2022/05/28 09:32:57;;;;;;;3.38;1.60;;;25.80;69.10;;;;;;6271983;22;20006;-75
2022/05/28 09:35:38;;;;;;;4.50;2.00;;;25.90;68.10;;;;;;6270375;22;20410;-75
2022/05/28 09:38:21;;;;;;;10.30;2.78;;;26.10;66.70;;;;;;6245535;22;20007;-75
2022/05/28 09:40:50;;;;;;;5.22;1.77;;;26.10;66.30;;;;;;6244480;22;20010;-75
2022/05/28 09:43:37;;;;;;;8.55;2.45;;;26.00;66.10;;;;;;6271804;22;20483;-76
2022/05/28 09:46:26;;;;;;;5.68;1.73;;;26.10;64.60;;;;;;6275021;22;20074;-76
2022/05/28 09:49:11;;;;;;;4.32;1.90;;;26.00;65.40;;;;;;6274940;22;20075;-76
2022/05/28 09:51:37;;;;;;;9.27;2.30;;;26.00;64.70;;;;;;6248431;22;20430;-76
2022/05/28 09:54:18;;;;;;;7.10;2.30;;;26.00;63.40;;;;;;6246736;22;20054;-76
2022/05/28 09:56:58;;;;;;;4.50;1.50;;;25.90;64.10;;;;;;6275706;22;20687;-76
2022/05/28 09:59:29;;;;;;;15.13;4.28;;;25.90;64.70;;;;;;6248774;22;20057;-76
2022/05/28 10:02:10;;;;;;;11.13;2.95;;;25.80;65.90;;;;;;6275600;22;20053;-76
2022/05/28 10:05:04;;;;;;;25.27;4.45;;;25.70;67.20;;;;;;6275959;22;20020;-79
2022/05/28 10:07:41;;;;;;;15.00;2.97;;;25.50;66.50;;;;;;6275565;22;20004;-76
2022/05/28 10:10:13;;;;;;;21.45;3.90;;;25.50;66.10;;;;;;6275588;22;20602;-76
2022/05/28 10:12:39;;;;;;;12.13;3.13;;;25.40;66.20;;;;;;6248717;22;20003;-80
2022/05/28 10:15:11;;;;;;;16.42;3.85;;;25.20;66.70;;;;;;6275474;22;20075;-79
2022/05/28 10:17:38;;;;;;;16.38;4.18;;;25.20;67.60;;;;;;6246499;22;20039;-75
2022/05/28 10:20:15;;;;;;;18.88;3.83;;;25.20;68.10;;;;;;6244127;22;20078;-76
2022/05/28 10:22:41;;;;;;;12.50;2.65;;;25.10;68.60;;;;;;6272498;22;20011;-81
2022/05/28 10:25:27;;;;;;;18.30;3.05;;;25.00;67.80;;;;;;6245518;22;20011;-81
2022/05/28 10:27:54;;;;;;;17.17;3.47;;;24.90;67.80;;;;;;6246437;22;20090;-78
2022/05/28 10:30:35;;;;;;;11.73;2.58;;;25.00;68.10;;;;;;6270002;22;20163;-77
2022/05/28 10:33:12;;;;;;;25.92;4.07;;;24.90;66.80;;;;;;6244432;22;20560;-77
2022/05/28 10:35:39;;;;;;;24.55;3.55;;;24.80;65.40;;;;;;6270714;22;20483;-77
2022/05/28 10:38:27;;;;;;;19.67;3.05;;;24.70;63.90;;;;;;6271076;22;20019;-77
2022/05/28 10:41:00;;;;;;;13.77;2.17;;;24.60;63.20;;;;;;6243793;22;20011;-74
2022/05/28 10:43:37;;;;;;;12.48;2.13;;;24.70;64.50;;;;;;6244819;22;20004;-78
2022/05/28 10:46:27;;;;;;;9.13;2.22;;;24.80;64.70;;;;;;6273517;22;20346;-79
2022/05/28 10:49:04;;;;;;;;;;;24.90;64.70;;;;;;6275278;22;20045;-78
2022/05/28 10:51:30;;;;;;;7.60;1.83;;;24.90;64.60;;;;;;6273994;22;19914;-78
2022/05/28 10:54:08;;;;;;;12.52;1.98;;;25.00;64.90;;;;;;6247559;22;20004;-78
2022/05/28 10:57:03;;;;;;;8.18;1.67;;;25.20;64.10;;;;;;6274596;22;20007;-78
2022/05/28 11:00:06;;;;;;;17.30;2.65;;;25.30;64.00;;;;;;6246766;22;20003;-78
2022/05/28 11:02:54;;;;;;;9.43;2.25;;;25.30;61.90;;;;;;6274131;22;20062;-78
2022/05/28 11:05:51;;;;;;;15.65;2.70;;;25.10;62.70;;;;;;6272418;22;20063;-78
2022/05/28 11:08:32;;;;;;;8.75;2.00;;;25.10;61.50;;;;;;6272889;22;20008;-79
2022/05/28 11:11:23;;;;;;;10.77;1.92;;;25.20;61.80;;;;;;6273850;22;20062;-78
2022/05/28 11:14:30;;;;;;;13.88;2.63;;;25.40;61.70;;;;;;6246526;22;20011;-75
2022/05/28 11:17:17;;;;;;;10.18;1.90;;;25.00;60.80;;;;;;6270643;22;20024;-74
2022/05/28 11:20:01;;;;;;;13.15;2.75;;;24.90;61.30;;;;;;6272604;22;20003;-78
2022/05/28 11:22:43;;;;;;;10.52;2.03;;;24.80;62.00;;;;;;6267470;22;20007;-78
2022/05/28 11:25:38;;;;;;;5.65;1.85;;;25.00;61.80;;;;;;6245356;22;20425;-78
2022/05/28 11:28:30;;;;;;;5.95;1.52;;;25.30;61.10;;;;;;6268835;22;20008;-78
2022/05/28 11:31:03;;;;;;;7.22;1.40;;;25.50;61.00;;;;;;6205013;22;20000;-78
2022/05/28 11:33:39;;;;;;;11.18;2.70;;;25.70;61.30;;;;;;6272214;22;20075;-78
2022/05/28 11:36:26;;;;;;;6.85;1.27;;;25.40;60.80;;;;;;6246178;22;20000;-75
2022/05/28 11:38:52;;;;;;;7.72;2.25;;;25.30;58.50;;;;;;6273209;22;20374;-74
2022/05/28 11:41:44;;;;;;;13.57;2.50;;;25.40;58.10;;;;;;6274156;22;20035;-77
2022/05/28 11:44:42;;;;;;;7.50;2.05;;;25.40;58.00;;;;;;6271139;22;20004;-76
2022/05/28 11:47:34;;;;;;;7.20;1.77;;;25.10;58.90;;;;;;6245954;22;20035;-74
2022/05/28 11:53:25;;;;;;;5.30;1.80;;;24.90;58.10;;;;;;6273243;22;20475;-75
2022/05/28 11:55:55;;;;;;;3.65;1.42;;;25.10;58.80;;;;;;6245349;22;20373;-74
2022/05/28 11:58:27;;;;;;;9.10;2.10;;;25.10;58.50;;;;;;6272535;22;20053;-74
2022/05/28 12:01:00;;;;;;;5.32;1.90;;;25.00;59.30;;;;;;6272490;22;20030;-74
2022/05/28 12:03:30;;;;;;;8.85;2.40;;;25.00;59.20;;;;;;6272709;22;20004;-74
2022/05/28 12:05:56;;;;;;;;;;;24.90;59.80;;;;;;6245781;22;20008;-74
2022/05/28 12:08:30;;;;;;;3.92;1.83;;;24.90;60.10;;;;;;6271066;22;19978;-74
2022/05/28 12:11:03;;;;;;;11.60;2.80;;;24.80;60.30;;;;;;6243256;22;20679;-75
2022/05/28 12:13:40;;;;;;;6.60;1.65;;;24.90;60.60;;;;;;6244715;22;20095;-75
2022/05/28 12:16:13;;;;;;;4.93;2.20;;;25.10;60.00;;;;;;6269214;22;20038;-78
2022/05/28 12:18:52;;;;;;;12.88;1.90;;;25.10;59.70;;;;;;6244491;22;20047;-79
2022/05/28 12:21:43;;;;;;;13.88;2.15;;;25.30;57.70;;;;;;6272241;22;20087;-75
2022/05/28 12:24:14;;;;;;;6.15;1.48;;;25.40;57.30;;;;;;6247726;22;20035;-79
2022/05/28 12:27:06;;;;;;;10.27;2.47;;;25.40;58.70;;;;;;6273811;22;20000;-79
2022/05/28 12:30:00;;;;;;;9.10;1.83;;;25.10;57.90;;;;;;6248631;22;20008;-79
2022/05/28 12:32:40;;;;;;;5.57;1.45;;;24.90;58.80;;;;;;6270706;22;20008;-79
2022/05/28 12:35:15;;;;;;;10.27;1.27;;;25.00;58.70;;;;;;6248993;22;20532;-80
2022/05/28 12:37:52;;;;;;;3.95;1.58;;;25.10;58.20;;;;;;6247453;22;20034;-79
2022/05/28 12:40:17;;;;;;;5.60;1.67;;;25.20;58.70;;;;;;6273540;22;20008;-79
2022/05/28 12:42:43;;;;;;;2.67;1.27;;;25.10;57.20;;;;;;6245461;22;20008;-80
2022/05/28 12:45:12;;;;;;;5.65;1.63;;;25.10;58.10;;;;;;6245357;22;20061;-79
2022/05/28 12:47:38;;;;;;;5.43;1.80;;;25.00;57.80;;;;;;6274618;22;20000;-80
2022/05/28 12:50:25;;;;;;;9.63;1.65;;;24.90;58.10;;;;;;6274478;22;20007;-79
2022/05/28 12:53:09;;;;;;;2.78;1.50;;;25.20;57.10;;;;;;6274754;22;20000;-80
2022/05/28 12:55:38;;;;;;;4.50;1.38;;;25.70;56.90;;;;;;6275271;22;19996;-80
2022/05/28 12:58:22;;;;;;;6.82;1.45;;;26.00;56.30;;;;;;6275826;22;20008;-80
2022/05/28 13:00:54;;;;;;;4.18;1.70;;;26.10;55.30;;;;;;6275790;22;19999;-79
2022/05/28 13:03:24;;;;;;;6.22;1.80;;;26.30;55.80;;;;;;6276057;22;19999;-80
2022/05/28 13:06:02;;;;;;;;;;;26.50;53.70;;;;;;6249910;22;20008;-80
2022/05/28 13:08:32;;;;;;;5.07;1.85;;;26.50;53.70;;;;;;6276014;22;19957;-80
2022/05/28 13:11:02;;;;;;;;;;;26.40;53.70;;;;;;6276393;22;20003;-79
2022/05/28 13:13:28;;;;;;;5.40;2.00;;;26.50;54.30;;;;;;6247706;22;19899;-79
2022/05/28 13:16:11;;;;;;;7.65;1.70;;;26.20;54.60;;;;;;6275687;22;20012;-79